Helas — C4AZ2 — position and weather

sailwx.info

Track history (hours):
 
Tides and Currents Weather Stations Pressure Air Temp Water Temp Dewpoint Dewpoint Depression Visibility Wind Speed Wind Dir Waves Ship Positions

Helas

Last reported at 2016-May-06 18:33 UTC. Time now 2016-May-06 18:47 UTC.
Position N 50°01' W 002°43'.

Length 89 m; draft 5.6 m.

Type: Cargo ship. MMSI: 210031000.

Date/timePositionNaut miles runAvg speedWind from/ knotsBaromVisibWave heightAir tempDewpointWater temp
2016-May-06 18:33N 50°01' W 002°43'7 7.5
2016-May-06 17:33N 50°03' W 002°32'9 8.6
2016-May-06 16:28N 50°05' W 002°18'910.4
2016-May-06 15:33N 50°08' W 002°04'4413.1
2016-May-06 12:12N 50°21' W 000°58'811.7
2016-May-06 11:30N 50°23' W 000°45'9 9.9
2016-May-06 10:33N 50°26' W 000°31'9 8.9
2016-May-06 09:33N 50°28' W 000°18'8 7.8
2016-May-06 08:33N 50°31' W 000°06'7 7.3
2016-May-06 07:33N 50°33' E 000°05'8 7.8
2016-May-06 06:33N 50°35' E 000°17'9 9.3
2016-May-06 05:33N 50°38' E 000°31'2211.0
2016-May-06 03:30N 50°50' E 001°00'1010.4
2016-May-06 02:33N 50°56' E 001°13'9 9.1
2016-May-06 01:33N 51°02' E 001°24'8 7.6
2016-May-06 00:33N 51°07' E 001°33'6 6.5
2016-May-05 23:33N 51°11' E 001°41'7 7.2
2016-May-05 22:33N 51°16' E 001°49'9 8.7
2016-May-05 21:33N 51°24' E 001°56'1110.7
2016-May-05 20:33N 51°32' E 002°07'1211.6
2016-May-05 19:33N 51°41' E 002°19'1211.9
2016-May-05 18:33N 51°50' E 002°31'66 9.2
2016-May-05 11:24N 52°31' E 003°56'810.0
2016-May-05 10:33N 52°31' E 004°10'1010.0
2016-May-05 09:33N 52°29' E 004°26'6 6.4
2016-May-05 08:33N 52°28' E 004°36'0 0.0
2016-May-05 07:33N 52°28' E 004°36'0 0.0
2016-May-05 06:33N 52°28' E 004°36'0 0.0
2016-May-05 05:33N 52°28' E 004°36'0 0.0
2016-May-05 04:33N 52°28' E 004°36'0 0.0
2016-May-05 03:33N 52°28' E 004°36'0 0.0
2016-May-05 02:33N 52°28' E 004°36'0 0.0
2016-May-05 01:33N 52°28' E 004°36'0 0.0
2016-May-05 00:29N 52°28' E 004°36'0 0.0
2016-May-04 23:32N 52°28' E 004°36'0 0.0
2016-May-04 22:32N 52°28' E 004°36'0 0.0
2016-May-04 21:32N 52°28' E 004°36'0 0.0
2016-May-04 20:32N 52°28' E 004°36'0 0.0
2016-May-04 19:32N 52°28' E 004°36'0 0.0
2016-May-04 18:32N 52°28' E 004°36'0 0.0
2016-May-04 17:29N 52°28' E 004°36'0 0.1
2016-May-04 16:29N 52°28' E 004°36'0 0.0
2016-May-04 15:32N 52°28' E 004°36'0 0.0
2016-May-04 14:32N 52°28' E 004°36'0 0.0
2016-May-04 13:29N 52°28' E 004°36'0 0.0
2016-May-04 12:32N 52°28' E 004°36'0 0.0
2016-May-04 11:32N 52°28' E 004°36'0 0.0
2016-May-04 10:32N 52°28' E 004°36'0 0.0
2016-May-04 09:32N 52°28' E 004°36'0 0.0
2016-May-04 08:32N 52°28' E 004°36'0 0.0
2016-May-04 07:32N 52°28' E 004°36'0 0.0
2016-May-04 06:32N 52°28' E 004°36'0 0.0
2016-May-04 05:32N 52°28' E 004°36'0 0.0
2016-May-04 04:32N 52°28' E 004°36'0 0.0
2016-May-04 03:29N 52°28' E 004°36'0 0.0
2016-May-04 02:32N 52°28' E 004°36'0 0.0
2016-May-04 01:32N 52°28' E 004°36'0 0.0
2016-May-04 00:32N 52°28' E 004°36'0 0.0
2016-May-03 23:32N 52°28' E 004°36'0 0.0
2016-May-03 22:32N 52°28' E 004°36'0 0.0
2016-May-03 21:32N 52°28' E 004°36'0 0.0
2016-May-03 20:32N 52°28' E 004°36'0 0.0
2016-May-03 19:32N 52°28' E 004°36'0 0.0
2016-May-03 18:32N 52°28' E 004°36'0 0.0
2016-May-03 17:32N 52°28' E 004°36'0 0.0
2016-May-03 16:31N 52°28' E 004°36'0 0.0
2016-May-03 15:28N 52°28' E 004°36'0 0.0
2016-May-03 14:31N 52°28' E 004°36'0 0.0
2016-May-03 13:28N 52°28' E 004°36'0 0.0
2016-May-03 12:31N 52°28' E 004°36'0 0.0
2016-May-03 11:31N 52°28' E 004°36'0 0.0
2016-May-03 10:31N 52°28' E 004°36'0 0.0
2016-May-03 09:31N 52°28' E 004°36'0 0.0
2016-May-03 07:28N 52°28' E 004°36'0 0.2
2016-May-03 06:28N 52°29' E 004°36'0 0.2
2016-May-03 05:31N 52°28' E 004°36'0 0.0
2016-May-03 04:31N 52°28' E 004°36'0 0.0
2016-May-03 03:31N 52°28' E 004°36'0 0.0
2016-May-03 02:31N 52°28' E 004°36'0 0.0
2016-May-03 01:31N 52°28' E 004°36'0 0.0
2016-May-03 00:31N 52°28' E 004°36'0 0.0
2016-May-02 23:31N 52°28' E 004°36'0 0.0
2016-May-02 22:31N 52°28' E 004°36'0 0.0
2016-May-02 21:31N 52°28' E 004°36'0 0.0
2016-May-02 20:28N 52°28' E 004°36'0 0.0
2016-May-02 19:31N 52°28' E 004°36'0 0.0
2016-May-02 18:31N 52°28' E 004°36'0 0.0
2016-May-02 17:31N 52°28' E 004°36'0 0.0
2016-May-02 16:31N 52°28' E 004°36'0 0.0
2016-May-02 15:31N 52°28' E 004°36'0 0.0
2016-May-02 14:31N 52°28' E 004°36'0 0.0
2016-May-02 13:33N 52°28' E 004°36'0 0.0
2016-May-02 12:33N 52°28' E 004°36'1 1.5
2016-May-02 11:34N 52°28' E 004°34'1010.4
2016-May-02 10:33N 52°28' E 004°17'6 5.2
2016-May-02 09:29N 52°28' E 004°08'0 0.0
2016-May-02 08:32N 52°28' E 004°08'0 0.0
2016-May-02 07:32N 52°28' E 004°08'0 0.0
2016-May-02 06:29N 52°28' E 004°08'0 0.0
2016-May-02 05:23N 52°28' E 004°08'0 0.0
2016-May-02 04:32N 52°28' E 004°08'0 0.0
2016-May-02 03:32N 52°28' E 004°08'0 0.0
2016-May-02 02:29N 52°28' E 004°08'0 0.0
2016-May-02 01:32N 52°28' E 004°08'0 0.0
2016-May-02 00:32N 52°28' E 004°08'3 2.6
2016-May-01 23:33N 52°30' E 004°09'5 5.3
2016-May-01 22:33N 52°35' E 004°06'5 5.2
2016-May-01 21:33N 52°40' E 004°03'6 5.8
2016-May-01 20:33N 52°45' E 004°00'6 6.2
2016-May-01 19:33N 52°51' E 003°59'7 7.4
2016-May-01 18:33N 52°58' E 004°04'7 7.4
2016-May-01 17:33N 53°03' E 004°13'9 8.9
2016-May-01 16:32N 53°09' E 004°25'6 5.9
2016-May-01 15:32N 53°12' E 004°33'7 5.7
2016-May-01 14:22N 53°15' E 004°43'5 5.6
2016-May-01 13:33N 53°17' E 004°50'6 5.6
2016-May-01 12:33N 53°19' E 004°58'5 4.5
2016-May-01 11:33N 53°20' E 005°06'3 3.3
2016-May-01 10:33N 53°17' E 005°10'4 4.1
2016-May-01 09:33N 53°14' E 005°14'6 6.1
2016-May-01 08:33N 53°11' E 005°23'2 2.0
2016-May-01 07:33N 53°11' E 005°26'0 0.0
2016-May-01 06:31N 53°11' E 005°26'0 0.0
2016-May-01 05:31N 53°11' E 005°26'0 0.0
2016-May-01 04:31N 53°11' E 005°26'0 0.0
2016-May-01 03:31N 53°11' E 005°26'0 0.0
2016-May-01 02:31N 53°11' E 005°26'0 0.0
2016-May-01 01:31N 53°11' E 005°26'0 0.0
2016-May-01 00:31N 53°11' E 005°26'0 0.0
2016-Apr-30 23:31N 53°11' E 005°26'0 0.0
2016-Apr-30 22:31N 53°11' E 005°26'0 0.0
2016-Apr-30 21:31N 53°11' E 005°26'0 0.0
2016-Apr-30 20:31N 53°11' E 005°26'0 0.0
2016-Apr-30 19:31N 53°11' E 005°26'0 0.0
2016-Apr-30 18:31N 53°11' E 005°26'0 0.0
2016-Apr-30 17:31N 53°11' E 005°26'0 0.0
2016-Apr-30 16:28N 53°11' E 005°26'0 0.0
2016-Apr-30 15:31N 53°11' E 005°26'0 0.0
2016-Apr-30 14:31N 53°11' E 005°26'0 0.0
2016-Apr-30 13:31N 53°11' E 005°26'0 0.0
2016-Apr-30 12:31N 53°11' E 005°26'0 0.0
2016-Apr-30 11:31N 53°11' E 005°26'0 0.0
2016-Apr-30 10:31N 53°11' E 005°26'0 0.0
2016-Apr-30 09:28N 53°11' E 005°26'0 0.0
2016-Apr-30 08:31N 53°11' E 005°26'0 0.0
2016-Apr-30 07:31N 53°11' E 005°26'0 0.0
2016-Apr-30 06:31N 53°11' E 005°26'0 0.0
2016-Apr-30 05:31N 53°11' E 005°26'0 0.0
2016-Apr-30 04:31N 53°11' E 005°26'0 0.0
2016-Apr-30 03:31N 53°11' E 005°26'0 0.0
2016-Apr-30 02:31N 53°11' E 005°26'0 0.0
2016-Apr-30 01:31N 53°11' E 005°26'0 0.0
2016-Apr-30 00:34N 53°11' E 005°26'0 0.0
2016-Apr-29 23:33N 53°11' E 005°26'0 0.0
2016-Apr-29 22:33N 53°11' E 005°26'0 0.0
2016-Apr-29 21:33N 53°11' E 005°26'0 0.0
2016-Apr-29 20:33N 53°11' E 005°26'0 0.0
2016-Apr-29 19:33N 53°11' E 005°26'0 0.0
2016-Apr-29 18:33N 53°11' E 005°26'0 0.0
2016-Apr-29 17:33N 53°11' E 005°26'0 0.0
2016-Apr-29 16:33N 53°11' E 005°26'0 0.0
2016-Apr-29 15:33N 53°11' E 005°26'0 0.0
2016-Apr-29 14:33N 53°11' E 005°26'0 0.0
2016-Apr-29 13:33N 53°11' E 005°26'0 0.0
2016-Apr-29 12:33N 53°11' E 005°26'0 0.0
2016-Apr-29 11:33N 53°11' E 005°26'0 0.0
2016-Apr-29 10:33N 53°11' E 005°26'0 0.0
2016-Apr-29 09:33N 53°11' E 005°26'0 0.0
2016-Apr-29 08:33N 53°11' E 005°26'0 0.0
2016-Apr-29 07:33N 53°11' E 005°26'0 0.0
2016-Apr-29 06:33N 53°11' E 005°26'0 0.0
2016-Apr-29 05:33N 53°11' E 005°26'0 0.0
2016-Apr-29 04:33N 53°11' E 005°26'0 0.0
2016-Apr-29 03:33N 53°11' E 005°26'0 0.0
2016-Apr-29 02:33N 53°11' E 005°26'0 0.0
2016-Apr-29 01:33N 53°11' E 005°26'0 0.0
2016-Apr-29 00:33N 53°11' E 005°26'0 0.0
2016-Apr-28 23:33N 53°11' E 005°26'0 0.0
2016-Apr-28 22:33N 53°11' E 005°26'0 0.0
2016-Apr-28 21:33N 53°11' E 005°26'0 0.0
2016-Apr-28 20:33N 53°11' E 005°26'0 0.0
2016-Apr-28 19:33N 53°11' E 005°26'0 0.0
2016-Apr-28 18:33N 53°11' E 005°26'0 0.0
2016-Apr-28 17:30N 53°11' E 005°26'0 0.0
2016-Apr-28 16:33N 53°11' E 005°26'0 0.0
2016-Apr-28 15:32N 53°11' E 005°26'0 0.0
2016-Apr-28 14:32N 53°11' E 005°26'0 0.0
2016-Apr-28 13:32N 53°11' E 005°26'0 0.0
2016-Apr-28 12:32N 53°11' E 005°26'0 0.0
2016-Apr-28 11:32N 53°11' E 005°26'0 0.0
2016-Apr-28 10:32N 53°11' E 005°26'0 0.0
2016-Apr-28 09:32N 53°11' E 005°26'0 0.0
2016-Apr-28 08:32N 53°11' E 005°26'0 0.0
2016-Apr-28 07:32N 53°11' E 005°26'0 0.0
2016-Apr-28 06:32N 53°11' E 005°26'0 0.0
2016-Apr-28 05:32N 53°11' E 005°26'0 0.0
2016-Apr-28 04:32N 53°11' E 005°26'0 0.0
2016-Apr-28 03:32N 53°11' E 005°26'0 0.0
2016-Apr-28 02:32N 53°11' E 005°26'0 0.0
2016-Apr-28 01:32N 53°11' E 005°26'0 0.0
2016-Apr-28 00:32N 53°11' E 005°26'0 0.0
2016-Apr-27 23:32N 53°11' E 005°26'0 0.0
2016-Apr-27 22:32N 53°11' E 005°26'0 0.0
2016-Apr-27 21:32N 53°11' E 005°26'0 0.0
2016-Apr-27 20:32N 53°11' E 005°26'0 0.0
2016-Apr-27 19:32N 53°11' E 005°26'0 0.0
2016-Apr-27 18:32N 53°11' E 005°26'0 0.0
2016-Apr-27 17:32N 53°11' E 005°26'0 0.0
2016-Apr-27 16:32N 53°11' E 005°26'0 0.0
2016-Apr-27 15:32N 53°11' E 005°26'0 0.0
2016-Apr-27 14:32N 53°11' E 005°26'0 0.0
2016-Apr-27 13:32N 53°11' E 005°26'0 0.0
2016-Apr-27 12:32N 53°11' E 005°26'0 0.0
2016-Apr-27 11:32N 53°11' E 005°26'0 0.0
2016-Apr-27 10:32N 53°11' E 005°26'0 0.0
2016-Apr-27 09:32N 53°11' E 005°26'0 0.0
2016-Apr-27 08:32N 53°11' E 005°26'0 0.0
2016-Apr-27 07:31N 53°11' E 005°26'0 0.0
2016-Apr-27 06:31N 53°11' E 005°26'0 0.0
2016-Apr-27 05:31N 53°11' E 005°26'0 0.0
2016-Apr-27 04:31N 53°11' E 005°26'0 0.0
2016-Apr-27 03:31N 53°11' E 005°26'0 0.0
2016-Apr-27 02:31N 53°11' E 005°26'0 0.0
2016-Apr-27 01:31N 53°11' E 005°26'0 0.0
2016-Apr-27 00:31N 53°11' E 005°26'0 0.0
2016-Apr-26 23:31N 53°11' E 005°26'0 0.0
2016-Apr-26 22:31N 53°11' E 005°26'0 0.0
2016-Apr-26 21:31N 53°11' E 005°26'0 0.0
2016-Apr-26 20:31N 53°11' E 005°26'0 0.0
2016-Apr-26 19:28N 53°11' E 005°26'  
Track history (hours):
 
Tides and Currents Weather Stations Pressure Air Temp Water Temp Dewpoint Dewpoint Depression Visibility Wind Speed Wind Dir Waves Ship Positions

Helas

Last reported at 2016-May-06 18:33 UTC. Time now 2016-May-06 18:47 UTC.
Position N 50°01' W 002°43'.

Length 89 m; draft 5.6 m.

Type: Cargo ship. MMSI: 210031000.

Date/timePositionNaut miles runAvg speedWind from/ knotsBaromVisibWave heightAir tempDewpointWater temp
2016-May-06 18:33N 50°01' W 002°43'7 7.5
2016-May-06 17:33N 50°03' W 002°32'9 8.6
2016-May-06 16:28N 50°05' W 002°18'910.4
2016-May-06 15:33N 50°08' W 002°04'4413.1
2016-May-06 12:12N 50°21' W 000°58'811.7
2016-May-06 11:30N 50°23' W 000°45'9 9.9
2016-May-06 10:33N 50°26' W 000°31'9 8.9
2016-May-06 09:33N 50°28' W 000°18'8 7.8
2016-May-06 08:33N 50°31' W 000°06'7 7.3
2016-May-06 07:33N 50°33' E 000°05'8 7.8
2016-May-06 06:33N 50°35' E 000°17'9 9.3
2016-May-06 05:33N 50°38' E 000°31'2211.0
2016-May-06 03:30N 50°50' E 001°00'1010.4
2016-May-06 02:33N 50°56' E 001°13'9 9.1
2016-May-06 01:33N 51°02' E 001°24'8 7.6
2016-May-06 00:33N 51°07' E 001°33'6 6.5
2016-May-05 23:33N 51°11' E 001°41'7 7.2
2016-May-05 22:33N 51°16' E 001°49'9 8.7
2016-May-05 21:33N 51°24' E 001°56'1110.7
2016-May-05 20:33N 51°32' E 002°07'1211.6
2016-May-05 19:33N 51°41' E 002°19'1211.9
2016-May-05 18:33N 51°50' E 002°31'66 9.2
2016-May-05 11:24N 52°31' E 003°56'810.0
2016-May-05 10:33N 52°31' E 004°10'1010.0
2016-May-05 09:33N 52°29' E 004°26'6 6.4
2016-May-05 08:33N 52°28' E 004°36'0 0.0
2016-May-05 07:33N 52°28' E 004°36'0 0.0
2016-May-05 06:33N 52°28' E 004°36'0 0.0
2016-May-05 05:33N 52°28' E 004°36'0 0.0
2016-May-05 04:33N 52°28' E 004°36'0 0.0
2016-May-05 03:33N 52°28' E 004°36'0 0.0
2016-May-05 02:33N 52°28' E 004°36'0 0.0
2016-May-05 01:33N 52°28' E 004°36'0 0.0
2016-May-05 00:29N 52°28' E 004°36'0 0.0
2016-May-04 23:32N 52°28' E 004°36'0 0.0
2016-May-04 22:32N 52°28' E 004°36'0 0.0
2016-May-04 21:32N 52°28' E 004°36'0 0.0
2016-May-04 20:32N 52°28' E 004°36'0 0.0
2016-May-04 19:32N 52°28' E 004°36'0 0.0
2016-May-04 18:32N 52°28' E 004°36'0 0.0
2016-May-04 17:29N 52°28' E 004°36'0 0.1
2016-May-04 16:29N 52°28' E 004°36'0 0.0
2016-May-04 15:32N 52°28' E 004°36'0 0.0
2016-May-04 14:32N 52°28' E 004°36'0 0.0
2016-May-04 13:29N 52°28' E 004°36'0 0.0
2016-May-04 12:32N 52°28' E 004°36'0 0.0
2016-May-04 11:32N 52°28' E 004°36'0 0.0
2016-May-04 10:32N 52°28' E 004°36'0 0.0
2016-May-04 09:32N 52°28' E 004°36'0 0.0
2016-May-04 08:32N 52°28' E 004°36'0 0.0
2016-May-04 07:32N 52°28' E 004°36'0 0.0
2016-May-04 06:32N 52°28' E 004°36'0 0.0
2016-May-04 05:32N 52°28' E 004°36'0 0.0
2016-May-04 04:32N 52°28' E 004°36'0 0.0
2016-May-04 03:29N 52°28' E 004°36'0 0.0
2016-May-04 02:32N 52°28' E 004°36'0 0.0
2016-May-04 01:32N 52°28' E 004°36'0 0.0
2016-May-04 00:32N 52°28' E 004°36'0 0.0
2016-May-03 23:32N 52°28' E 004°36'0 0.0
2016-May-03 22:32N 52°28' E 004°36'0 0.0
2016-May-03 21:32N 52°28' E 004°36'0 0.0
2016-May-03 20:32N 52°28' E 004°36'0 0.0
2016-May-03 19:32N 52°28' E 004°36'0 0.0
2016-May-03 18:32N 52°28' E 004°36'0 0.0
2016-May-03 17:32N 52°28' E 004°36'0 0.0
2016-May-03 16:31N 52°28' E 004°36'0 0.0
2016-May-03 15:28N 52°28' E 004°36'0 0.0
2016-May-03 14:31N 52°28' E 004°36'0 0.0
2016-May-03 13:28N 52°28' E 004°36'0 0.0
2016-May-03 12:31N 52°28' E 004°36'0 0.0
2016-May-03 11:31N 52°28' E 004°36'0 0.0
2016-May-03 10:31N 52°28' E 004°36'0 0.0
2016-May-03 09:31N 52°28' E 004°36'0 0.0
2016-May-03 07:28N 52°28' E 004°36'0 0.2
2016-May-03 06:28N 52°29' E 004°36'0 0.2
2016-May-03 05:31N 52°28' E 004°36'0 0.0
2016-May-03 04:31N 52°28' E 004°36'0 0.0
2016-May-03 03:31N 52°28' E 004°36'0 0.0
2016-May-03 02:31N 52°28' E 004°36'0 0.0
2016-May-03 01:31N 52°28' E 004°36'0 0.0
2016-May-03 00:31N 52°28' E 004°36'0 0.0
2016-May-02 23:31N 52°28' E 004°36'0 0.0
2016-May-02 22:31N 52°28' E 004°36'0 0.0
2016-May-02 21:31N 52°28' E 004°36'0 0.0
2016-May-02 20:28N 52°28' E 004°36'0 0.0
2016-May-02 19:31N 52°28' E 004°36'0 0.0
2016-May-02 18:31N 52°28' E 004°36'0 0.0
2016-May-02 17:31N 52°28' E 004°36'0 0.0
2016-May-02 16:31N 52°28' E 004°36'0 0.0
2016-May-02 15:31N 52°28' E 004°36'0 0.0
2016-May-02 14:31N 52°28' E 004°36'0 0.0
2016-May-02 13:33N 52°28' E 004°36'0 0.0
2016-May-02 12:33N 52°28' E 004°36'1 1.5
2016-May-02 11:34N 52°28' E 004°34'1010.4
2016-May-02 10:33N 52°28' E 004°17'6 5.2
2016-May-02 09:29N 52°28' E 004°08'0 0.0
2016-May-02 08:32N 52°28' E 004°08'0 0.0
2016-May-02 07:32N 52°28' E 004°08'0 0.0
2016-May-02 06:29N 52°28' E 004°08'0 0.0
2016-May-02 05:23N 52°28' E 004°08'0 0.0
2016-May-02 04:32N 52°28' E 004°08'0 0.0
2016-May-02 03:32N 52°28' E 004°08'0 0.0
2016-May-02 02:29N 52°28' E 004°08'0 0.0
2016-May-02 01:32N 52°28' E 004°08'0 0.0
2016-May-02 00:32N 52°28' E 004°08'3 2.6
2016-May-01 23:33N 52°30' E 004°09'5 5.3
2016-May-01 22:33N 52°35' E 004°06'5 5.2
2016-May-01 21:33N 52°40' E 004°03'6 5.8
2016-May-01 20:33N 52°45' E 004°00'6 6.2
2016-May-01 19:33N 52°51' E 003°59'7 7.4
2016-May-01 18:33N 52°58' E 004°04'7 7.4
2016-May-01 17:33N 53°03' E 004°13'9 8.9
2016-May-01 16:32N 53°09' E 004°25'6 5.9
2016-May-01 15:32N 53°12' E 004°33'7 5.7
2016-May-01 14:22N 53°15' E 004°43'5 5.6
2016-May-01 13:33N 53°17' E 004°50'6 5.6
2016-May-01 12:33N 53°19' E 004°58'5 4.5
2016-May-01 11:33N 53°20' E 005°06'3 3.3
2016-May-01 10:33N 53°17' E 005°10'4 4.1
2016-May-01 09:33N 53°14' E 005°14'6 6.1
2016-May-01 08:33N 53°11' E 005°23'2 2.0
2016-May-01 07:33N 53°11' E 005°26'0 0.0
2016-May-01 06:31N 53°11' E 005°26'0 0.0
2016-May-01 05:31N 53°11' E 005°26'0 0.0
2016-May-01 04:31N 53°11' E 005°26'0 0.0
2016-May-01 03:31N 53°11' E 005°26'0 0.0
2016-May-01 02:31N 53°11' E 005°26'0 0.0
2016-May-01 01:31N 53°11' E 005°26'0 0.0
2016-May-01 00:31N 53°11' E 005°26'0 0.0
2016-Apr-30 23:31N 53°11' E 005°26'0 0.0
2016-Apr-30 22:31N 53°11' E 005°26'0 0.0
2016-Apr-30 21:31N 53°11' E 005°26'0 0.0
2016-Apr-30 20:31N 53°11' E 005°26'0 0.0
2016-Apr-30 19:31N 53°11' E 005°26'0 0.0
2016-Apr-30 18:31N 53°11' E 005°26'0 0.0
2016-Apr-30 17:31N 53°11' E 005°26'0 0.0
2016-Apr-30 16:28N 53°11' E 005°26'0 0.0
2016-Apr-30 15:31N 53°11' E 005°26'0 0.0
2016-Apr-30 14:31N 53°11' E 005°26'0 0.0
2016-Apr-30 13:31N 53°11' E 005°26'0 0.0
2016-Apr-30 12:31N 53°11' E 005°26'0 0.0
2016-Apr-30 11:31N 53°11' E 005°26'0 0.0
2016-Apr-30 10:31N 53°11' E 005°26'0 0.0
2016-Apr-30 09:28N 53°11' E 005°26'0 0.0
2016-Apr-30 08:31N 53°11' E 005°26'0 0.0
2016-Apr-30 07:31N 53°11' E 005°26'0 0.0
2016-Apr-30 06:31N 53°11' E 005°26'0 0.0
2016-Apr-30 05:31N 53°11' E 005°26'0 0.0
2016-Apr-30 04:31N 53°11' E 005°26'0 0.0
2016-Apr-30 03:31N 53°11' E 005°26'0 0.0
2016-Apr-30 02:31N 53°11' E 005°26'0 0.0
2016-Apr-30 01:31N 53°11' E 005°26'0 0.0
2016-Apr-30 00:34N 53°11' E 005°26'0 0.0
2016-Apr-29 23:33N 53°11' E 005°26'0 0.0
2016-Apr-29 22:33N 53°11' E 005°26'0 0.0
2016-Apr-29 21:33N 53°11' E 005°26'0 0.0
2016-Apr-29 20:33N 53°11' E 005°26'0 0.0
2016-Apr-29 19:33N 53°11' E 005°26'0 0.0
2016-Apr-29 18:33N 53°11' E 005°26'0 0.0
2016-Apr-29 17:33N 53°11' E 005°26'0 0.0
2016-Apr-29 16:33N 53°11' E 005°26'0 0.0
2016-Apr-29 15:33N 53°11' E 005°26'0 0.0
2016-Apr-29 14:33N 53°11' E 005°26'0 0.0
2016-Apr-29 13:33N 53°11' E 005°26'0 0.0
2016-Apr-29 12:33N 53°11' E 005°26'0 0.0
2016-Apr-29 11:33N 53°11' E 005°26'0 0.0
2016-Apr-29 10:33N 53°11' E 005°26'0 0.0
2016-Apr-29 09:33N 53°11' E 005°26'0 0.0
2016-Apr-29 08:33N 53°11' E 005°26'0 0.0
2016-Apr-29 07:33N 53°11' E 005°26'0 0.0
2016-Apr-29 06:33N 53°11' E 005°26'0 0.0
2016-Apr-29 05:33N 53°11' E 005°26'0 0.0
2016-Apr-29 04:33N 53°11' E 005°26'0 0.0
2016-Apr-29 03:33N 53°11' E 005°26'0 0.0
2016-Apr-29 02:33N 53°11' E 005°26'0 0.0
2016-Apr-29 01:33N 53°11' E 005°26'0 0.0
2016-Apr-29 00:33N 53°11' E 005°26'0 0.0
2016-Apr-28 23:33N 53°11' E 005°26'0 0.0
2016-Apr-28 22:33N 53°11' E 005°26'0 0.0
2016-Apr-28 21:33N 53°11' E 005°26'0 0.0
2016-Apr-28 20:33N 53°11' E 005°26'0 0.0
2016-Apr-28 19:33N 53°11' E 005°26'0 0.0
2016-Apr-28 18:33N 53°11' E 005°26'0 0.0
2016-Apr-28 17:30N 53°11' E 005°26'0 0.0
2016-Apr-28 16:33N 53°11' E 005°26'0 0.0
2016-Apr-28 15:32N 53°11' E 005°26'0 0.0
2016-Apr-28 14:32N 53°11' E 005°26'0 0.0
2016-Apr-28 13:32N 53°11' E 005°26'0 0.0
2016-Apr-28 12:32N 53°11' E 005°26'0 0.0
2016-Apr-28 11:32N 53°11' E 005°26'0 0.0
2016-Apr-28 10:32N 53°11' E 005°26'0 0.0
2016-Apr-28 09:32N 53°11' E 005°26'0 0.0
2016-Apr-28 08:32N 53°11' E 005°26'0 0.0
2016-Apr-28 07:32N 53°11' E 005°26'0 0.0
2016-Apr-28 06:32N 53°11' E 005°26'0 0.0
2016-Apr-28 05:32N 53°11' E 005°26'0 0.0
2016-Apr-28 04:32N 53°11' E 005°26'0 0.0
2016-Apr-28 03:32N 53°11' E 005°26'0 0.0
2016-Apr-28 02:32N 53°11' E 005°26'0 0.0
2016-Apr-28 01:32N 53°11' E 005°26'0 0.0
2016-Apr-28 00:32N 53°11' E 005°26'0 0.0
2016-Apr-27 23:32N 53°11' E 005°26'0 0.0
2016-Apr-27 22:32N 53°11' E 005°26'0 0.0
2016-Apr-27 21:32N 53°11' E 005°26'0 0.0
2016-Apr-27 20:32N 53°11' E 005°26'0 0.0
2016-Apr-27 19:32N 53°11' E 005°26'0 0.0
2016-Apr-27 18:32N 53°11' E 005°26'0 0.0
2016-Apr-27 17:32N 53°11' E 005°26'0 0.0
2016-Apr-27 16:32N 53°11' E 005°26'0 0.0
2016-Apr-27 15:32N 53°11' E 005°26'0 0.0
2016-Apr-27 14:32N 53°11' E 005°26'0 0.0
2016-Apr-27 13:32N 53°11' E 005°26'0 0.0
2016-Apr-27 12:32N 53°11' E 005°26'0 0.0
2016-Apr-27 11:32N 53°11' E 005°26'0 0.0
2016-Apr-27 10:32N 53°11' E 005°26'0 0.0
2016-Apr-27 09:32N 53°11' E 005°26'0 0.0
2016-Apr-27 08:32N 53°11' E 005°26'0 0.0
2016-Apr-27 07:31N 53°11' E 005°26'0 0.0
2016-Apr-27 06:31N 53°11' E 005°26'0 0.0
2016-Apr-27 05:31N 53°11' E 005°26'0 0.0
2016-Apr-27 04:31N 53°11' E 005°26'0 0.0
2016-Apr-27 03:31N 53°11' E 005°26'0 0.0
2016-Apr-27 02:31N 53°11' E 005°26'0 0.0
2016-Apr-27 01:31N 53°11' E 005°26'0 0.0
2016-Apr-27 00:31N 53°11' E 005°26'0 0.0
2016-Apr-26 23:31N 53°11' E 005°26'0 0.0
2016-Apr-26 22:31N 53°11' E 005°26'0 0.0
2016-Apr-26 21:31N 53°11' E 005°26'0 0.0
2016-Apr-26 20:31N 53°11' E 005°26'0 0.0
2016-Apr-26 19:28N 53°11' E 005°26'  

Dump ship's entire track history